createdAt,value
2023-03-27T00:00:01.563Z,96.22
2023-03-27T00:02:31.554Z,96.67
2023-03-27T00:04:58.702Z,96.87
2023-03-27T00:07:25.743Z,96.60
2023-03-27T00:09:53.541Z,96.63
2023-03-27T00:12:20.560Z,97.01
2023-03-27T00:14:48.291Z,96.68
2023-03-27T00:17:15.338Z,96.72
2023-03-27T00:19:42.448Z,96.09
2023-03-27T00:22:09.566Z,95.79
2023-03-27T00:24:37.442Z,96.02
2023-03-27T00:27:04.403Z,95.78
2023-03-27T00:29:31.672Z,95.63
2023-03-27T00:31:58.788Z,95.33
2023-03-27T00:34:25.841Z,95.25
2023-03-27T00:36:53.862Z,94.54
2023-03-27T00:39:20.985Z,94.56
2023-03-27T00:41:48.826Z,94.81
2023-03-27T00:44:36.489Z,94.58
2023-03-27T00:47:07.823Z,94.64
2023-03-27T00:49:37.585Z,94.86
2023-03-27T00:52:06.937Z,95.04
2023-03-27T00:54:40.327Z,94.56
2023-03-27T00:57:12.301Z,94.64
2023-03-27T00:59:42.747Z,94.53
2023-03-27T01:02:10.415Z,94.12
2023-03-27T01:04:39.951Z,94.15
2023-03-27T01:07:11.227Z,93.95
2023-03-27T01:09:39.356Z,93.70
2023-03-27T01:12:23.941Z,93.77
2023-03-27T01:14:56.852Z,93.75
2023-03-27T01:17:32.790Z,94.10
2023-03-27T01:20:44.990Z,94.16
2023-03-27T01:23:58.729Z,93.79
2023-03-27T01:26:49.084Z,93.74
2023-03-27T01:29:31.122Z,93.31
2023-03-27T01:32:30.985Z,93.34
2023-03-27T01:35:49.301Z,93.74
2023-03-27T01:38:40.943Z,93.60
2023-03-27T01:41:11.565Z,93.20
2023-03-27T01:43:47.350Z,93.68
2023-03-27T01:46:29.975Z,93.44
2023-03-27T01:49:05.785Z,93.57
2023-03-27T01:51:38.683Z,93.71
2023-03-27T01:54:32.918Z,93.99
2023-03-27T01:57:09.190Z,94.36
2023-03-27T01:59:42.545Z,94.24
2023-03-27T02:02:14.885Z,94.16
2023-03-27T02:04:51.726Z,93.82
2023-03-27T02:07:27.269Z,93.79
2023-03-27T02:10:00.381Z,94.14
2023-03-27T02:12:38.035Z,94.19
2023-03-27T02:15:26.217Z,93.88
2023-03-27T02:18:06.624Z,94.35
2023-03-27T02:20:35.966Z,94.55
2023-03-27T02:23:05.293Z,94.34
2023-03-27T02:25:39.799Z,94.32
2023-03-27T02:28:31.930Z,94.30
2023-03-27T02:31:31.611Z,93.58
2023-03-27T02:34:14.733Z,93.29
2023-03-27T02:36:56.402Z,93.21
2023-03-27T02:40:09.133Z,93.86
2023-03-27T02:43:08.512Z,93.70
2023-03-27T02:45:57.650Z,94.89
2023-03-27T02:48:24.743Z,94.89
2023-03-27T02:51:01.371Z,95.04
2023-03-27T02:53:36.368Z,95.65
2023-03-27T02:56:06.140Z,96.16
2023-03-27T02:58:47.492Z,96.98
2023-03-27T03:01:32.348Z,97.32
2023-03-27T03:04:31.148Z,97.04
2023-03-27T03:07:20.291Z,97.51
2023-03-27T03:09:47.331Z,97.25
2023-03-27T03:12:14.224Z,97.37
2023-03-27T03:14:44.352Z,97.55
2023-03-27T03:17:12.980Z,97.68
2023-03-27T03:19:40.946Z,97.56
2023-03-27T03:22:08.733Z,97.22
2023-03-27T03:24:37.585Z,97.62
2023-03-27T03:27:05.938Z,97.13
2023-03-27T03:29:44.341Z,96.86
2023-03-27T03:32:20.868Z,96.93
2023-03-27T03:34:51.085Z,97.19
2023-03-27T03:37:19.013Z,96.60
2023-03-27T03:39:46.882Z,96.67
2023-03-27T03:42:22.901Z,97.30
2023-03-27T03:44:52.879Z,97.18
2023-03-27T03:47:22.505Z,96.50
2023-03-27T03:49:50.026Z,96.41
2023-03-27T03:52:17.082Z,96.42
2023-03-27T03:54:46.714Z,97.24
2023-03-27T03:59:41.501Z,97.14
2023-03-27T04:02:28.853Z,97.30
2023-03-27T04:05:08.378Z,97.21
2023-03-27T04:07:37.029Z,96.32
2023-03-27T04:10:30.680Z,95.92
2023-03-27T04:12:59.771Z,95.68
2023-03-27T04:15:29.810Z,95.08
2023-03-27T04:17:59.893Z,95.48
2023-03-27T04:20:27.428Z,95.91
2023-03-27T04:22:56.334Z,95.58
2023-03-27T04:25:24.944Z,95.09
2023-03-27T04:27:52.621Z,94.59
2023-03-27T04:30:28.879Z,94.86
2023-03-27T04:33:20.650Z,94.37
2023-03-27T04:36:07.197Z,94.06
2023-03-27T04:38:44.436Z,94.06
2023-03-27T04:41:11.958Z,94.34
2023-03-27T04:43:41.966Z,94.29
2023-03-27T04:46:09.520Z,94.21
2023-03-27T04:48:39.010Z,93.47
2023-03-27T04:51:18.822Z,93.37
2023-03-27T04:53:46.419Z,93.50
2023-03-27T04:56:13.990Z,93.14
2023-03-27T04:58:48.683Z,93.21
2023-03-27T05:01:17.492Z,93.42
2023-03-27T05:04:03.737Z,93.13
2023-03-27T05:06:44.843Z,93.05
2023-03-27T05:09:15.721Z,92.76
2023-03-27T05:11:44.878Z,92.37
2023-03-27T05:14:11.874Z,92.29
2023-03-27T05:16:41.429Z,92.64
2023-03-27T05:19:09.817Z,92.42
2023-03-27T05:21:41.293Z,92.11
2023-03-27T05:24:11.214Z,92.06
2023-03-27T05:26:39.330Z,92.05
2023-03-27T05:29:06.533Z,92.15
2023-03-27T05:31:37.524Z,91.70
2023-03-27T05:34:30.498Z,92.07
2023-03-27T05:37:06.434Z,92.19
2023-03-27T05:39:42.626Z,92.45
2023-03-27T05:42:10.385Z,92.22
2023-03-27T05:44:37.466Z,91.57
2023-03-27T05:47:05.494Z,91.56
2023-03-27T05:49:34.149Z,91.33
2023-03-27T05:52:09.610Z,90.94
2023-03-27T05:54:36.769Z,91.08
2023-03-27T05:57:08.456Z,91.76
2023-03-27T05:59:37.307Z,92.87
2023-03-27T06:02:30.750Z,92.50
2023-03-27T06:05:04.621Z,93.03
2023-03-27T06:07:39.080Z,93.46
2023-03-27T06:10:13.773Z,93.36
2023-03-27T06:13:16.760Z,93.39
2023-03-27T06:16:05.845Z,93.83
2023-03-27T06:18:51.314Z,93.97
2023-03-27T06:21:22.791Z,93.32
2023-03-27T06:23:56.944Z,94.16
2023-03-27T06:26:23.914Z,93.92
2023-03-27T06:28:51.004Z,93.13
2023-03-27T06:31:20.499Z,93.19
2023-03-27T06:34:01.599Z,93.27
2023-03-27T06:36:41.096Z,92.76
2023-03-27T06:39:10.216Z,93.08
2023-03-27T06:41:37.747Z,93.82
2023-03-27T06:44:04.951Z,93.49
2023-03-27T06:46:45.827Z,92.53
2023-03-27T06:49:17.162Z,92.42
2023-03-27T06:51:44.247Z,92.14
2023-03-27T06:54:13.647Z,91.34
2023-03-27T06:56:45.924Z,91.36
2023-03-27T06:59:17.914Z,91.44
2023-03-27T07:01:48.118Z,91.62
2023-03-27T07:04:27.660Z,90.90
2023-03-27T07:07:11.256Z,89.92
2023-03-27T07:09:41.356Z,89.26
2023-03-27T07:12:09.693Z,89.01
2023-03-27T07:14:38.610Z,88.54
2023-03-27T07:17:09.107Z,88.30
2023-03-27T07:19:51.576Z,87.29
2023-03-27T07:22:21.790Z,86.63
2023-03-27T07:24:49.488Z,85.42
2023-03-27T07:27:16.757Z,85.15
2023-03-27T07:29:45.325Z,84.72
2023-03-27T07:32:29.546Z,84.33
2023-03-27T07:35:05.398Z,81.73
2023-03-27T07:37:53.993Z,81.36
2023-03-27T07:40:57.724Z,80.35
2023-03-27T07:43:44.548Z,81.81
2023-03-27T07:46:11.660Z,80.75
2023-03-27T07:48:40.048Z,80.78
2023-03-27T07:51:14.537Z,80.06
2023-03-27T07:53:44.604Z,80.74
2023-03-27T07:56:23.605Z,80.38
2023-03-27T07:59:08.562Z,81.01
2023-03-27T08:01:36.862Z,81.81
2023-03-27T08:04:04.128Z,80.26
2023-03-27T08:06:34.573Z,80.56
2023-03-27T08:09:04.029Z,80.55
2023-03-27T08:11:31.440Z,80.18
2023-03-27T08:13:59.747Z,79.11
2023-03-27T08:16:30.004Z,80.22
2023-03-27T08:19:00.248Z,79.53
2023-03-27T08:21:28.569Z,79.97
2023-03-27T08:23:57.716Z,79.32
2023-03-27T08:26:33.893Z,79.90
2023-03-27T08:29:08.445Z,79.70
2023-03-27T08:31:36.436Z,79.06
2023-03-27T08:34:05.451Z,78.50
2023-03-27T08:36:52.805Z,78.53
2023-03-27T08:39:23.246Z,76.33
2023-03-27T08:42:00.495Z,76.38
2023-03-27T08:44:33.176Z,75.66
2023-03-27T08:47:17.074Z,75.27
2023-03-27T08:50:02.664Z,75.30
2023-03-27T08:52:34.270Z,74.41
2023-03-27T08:55:22.963Z,72.44
2023-03-27T08:57:58.114Z,72.84
2023-03-27T09:00:32.000Z,71.72
2023-03-27T09:03:32.496Z,71.53
2023-03-27T09:06:08.627Z,72.09
2023-03-27T09:08:55.473Z,71.70
2023-03-27T09:11:40.823Z,69.99
2023-03-27T09:14:27.392Z,68.10
2023-03-27T09:16:56.910Z,68.06
2023-03-27T09:19:37.031Z,68.13
2023-03-27T09:22:13.802Z,67.13
2023-03-27T09:24:56.572Z,58.83
2023-03-27T09:27:33.589Z,54.61
2023-03-27T09:30:11.319Z,59.13
2023-03-27T09:32:49.367Z,59.30
2023-03-27T09:35:19.145Z,57.77
2023-03-27T09:37:58.658Z,55.74
2023-03-27T09:40:56.264Z,51.73
2023-03-27T09:43:30.426Z,55.21
2023-03-27T09:46:20.196Z,54.17
2023-03-27T09:49:18.363Z,54.38
2023-03-27T09:51:54.284Z,55.91
2023-03-27T09:54:54.766Z,49.37
2023-03-27T09:57:40.550Z,46.67
2023-03-27T10:00:28.400Z,42.06
2023-03-27T10:03:28.871Z,45.71
2023-03-27T10:06:09.966Z,47.23
2023-03-27T10:08:55.488Z,51.76
2023-03-27T10:11:32.636Z,51.32
2023-03-27T10:14:17.253Z,46.79
2023-03-27T10:16:46.338Z,44.11
2023-03-27T10:19:46.565Z,47.18
2023-03-27T10:22:29.279Z,48.26
2023-03-27T10:25:00.862Z,50.45
2023-03-27T10:27:47.301Z,50.36
2023-03-27T10:30:43.723Z,52.21
2023-03-27T10:33:41.485Z,51.38
2023-03-27T10:36:37.306Z,52.24
2023-03-27T10:39:13.963Z,50.39
2023-03-27T10:42:10.618Z,46.10
2023-03-27T10:44:44.983Z,46.97
2023-03-27T10:47:18.919Z,47.46
2023-03-27T10:50:15.740Z,51.07
2023-03-27T10:52:57.913Z,53.65
2023-03-27T10:55:36.828Z,53.42
2023-03-27T10:58:16.159Z,53.97
2023-03-27T11:00:51.194Z,54.29
2023-03-27T11:03:53.294Z,55.61
2023-03-27T11:06:25.299Z,56.37
2023-03-27T11:09:05.935Z,57.08
2023-03-27T11:11:48.183Z,57.43
2023-03-27T11:14:28.026Z,60.64
2023-03-27T11:17:04.273Z,60.50
2023-03-27T11:20:07.615Z,61.01
2023-03-27T11:23:16.492Z,63.11
2023-03-27T11:26:11.707Z,63.98
2023-03-27T11:29:09.583Z,63.54
2023-03-27T11:31:46.844Z,62.88
2023-03-27T11:34:34.196Z,64.35
2023-03-27T11:37:46.983Z,65.11
2023-03-27T11:40:20.362Z,65.27
2023-03-27T11:42:55.085Z,66.06
2023-03-27T11:45:28.306Z,65.30
2023-03-27T11:48:02.373Z,66.72
2023-03-27T11:51:03.177Z,68.52
2023-03-27T11:53:56.521Z,69.39
2023-03-27T11:56:59.340Z,72.79
2023-03-27T11:59:58.128Z,75.25
2023-03-27T12:02:37.949Z,74.24
2023-03-27T12:05:37.666Z,73.43
2023-03-27T12:08:27.458Z,72.85
2023-03-27T12:10:59.642Z,71.03
2023-03-27T12:14:02.747Z,69.26
2023-03-27T12:17:05.916Z,68.04
2023-03-27T12:20:10.928Z,67.60
2023-03-27T12:22:58.766Z,68.81
2023-03-27T12:26:34.824Z,68.90
2023-03-27T12:29:23.511Z,70.87
2023-03-27T12:32:25.090Z,69.88
2023-03-27T12:34:56.952Z,69.19
2023-03-27T12:37:47.826Z,68.98
2023-03-27T12:40:27.318Z,68.58
2023-03-27T12:43:31.780Z,67.05
2023-03-27T12:46:25.295Z,67.28
2023-03-27T12:49:06.645Z,67.00
2023-03-27T12:51:44.877Z,67.41
2023-03-27T12:54:23.326Z,67.29
2023-03-27T12:56:52.675Z,66.25
2023-03-27T12:59:23.507Z,66.21
2023-03-27T13:02:10.972Z,64.19
2023-03-27T13:05:01.988Z,64.55
2023-03-27T13:07:43.437Z,65.72
2023-03-27T13:10:46.476Z,65.89
2023-03-27T13:13:49.759Z,65.55
2023-03-27T13:16:26.092Z,66.56
2023-03-27T13:19:27.478Z,68.64
2023-03-27T13:23:03.085Z,70.32
2023-03-27T13:25:38.395Z,70.30
2023-03-27T13:28:33.040Z,70.79
2023-03-27T13:31:15.836Z,70.08
2023-03-27T13:34:12.148Z,70.04
2023-03-27T13:36:50.727Z,70.93
2023-03-27T13:39:55.401Z,70.25
2023-03-27T13:45:07.877Z,70.30
2023-03-27T13:47:54.511Z,70.96
2023-03-27T13:50:44.961Z,70.57
2023-03-27T13:53:42.959Z,69.29
2023-03-27T13:56:41.482Z,68.82
2023-03-27T13:59:49.005Z,69.33
2023-03-27T14:02:38.549Z,68.79
2023-03-27T14:05:45.092Z,68.16
2023-03-27T14:08:38.626Z,68.18
2023-03-27T14:11:42.074Z,67.60
2023-03-27T14:14:41.197Z,67.97
2023-03-27T14:17:21.110Z,68.36
2023-03-27T14:20:22.237Z,68.36
2023-03-27T14:23:05.796Z,68.44
2023-03-27T14:26:01.901Z,68.16
2023-03-27T14:28:54.603Z,68.21
2023-03-27T14:31:38.464Z,67.99
2023-03-27T14:34:22.535Z,68.09
2023-03-27T14:36:52.443Z,68.86
2023-03-27T14:39:28.526Z,68.28
2023-03-27T14:42:03.821Z,68.56
2023-03-27T14:44:34.501Z,68.39
2023-03-27T14:47:13.404Z,68.49
2023-03-27T14:49:50.227Z,68.35
2023-03-27T14:52:35.409Z,68.61
2023-03-27T14:55:27.031Z,68.39
2023-03-27T14:58:18.608Z,68.73
2023-03-27T15:00:54.769Z,68.74
2023-03-27T15:03:26.505Z,69.19
2023-03-27T15:06:05.023Z,69.44
2023-03-27T15:08:46.702Z,69.60
2023-03-27T15:11:27.387Z,69.28
2023-03-27T15:14:13.414Z,69.35
2023-03-27T15:16:41.444Z,69.79
2023-03-27T15:19:19.895Z,69.81
2023-03-27T15:22:01.529Z,70.32
2023-03-27T15:24:57.706Z,70.64
2023-03-27T15:27:35.361Z,70.75
2023-03-27T15:30:18.066Z,71.23
2023-03-27T15:32:52.907Z,70.46
2023-03-27T15:35:29.424Z,71.44
2023-03-27T15:37:57.205Z,71.44
2023-03-27T15:40:34.240Z,71.75
2023-03-27T15:43:22.171Z,72.52
2023-03-27T15:46:14.926Z,72.21
2023-03-27T15:48:50.881Z,72.21
2023-03-27T15:51:20.737Z,72.44
2023-03-27T15:53:49.604Z,72.23
2023-03-27T15:56:22.010Z,72.61
2023-03-27T15:58:53.282Z,73.27
2023-03-27T16:01:41.283Z,74.06
2023-03-27T16:04:15.608Z,73.95
2023-03-27T16:06:46.667Z,74.34
2023-03-27T16:09:29.484Z,73.81
2023-03-27T16:11:58.342Z,74.61
2023-03-27T16:14:30.235Z,74.70
2023-03-27T16:17:12.351Z,76.17
2023-03-27T16:19:44.985Z,75.57
2023-03-27T16:22:13.345Z,76.68
2023-03-27T16:24:40.612Z,76.93
2023-03-27T16:27:07.557Z,76.07
2023-03-27T16:29:34.539Z,76.33
2023-03-27T16:32:01.588Z,77.53
2023-03-27T16:34:28.873Z,76.33
2023-03-27T16:36:56.158Z,76.94
2023-03-27T16:39:23.036Z,77.41
2023-03-27T16:41:50.296Z,77.75
2023-03-27T16:44:18.803Z,79.11
2023-03-27T16:46:46.507Z,79.26
2023-03-27T16:49:13.643Z,79.76
2023-03-27T16:51:40.906Z,79.40
2023-03-27T16:54:07.839Z,80.47
2023-03-27T16:56:35.556Z,80.67
2023-03-27T16:59:02.936Z,79.87
2023-03-27T17:01:29.857Z,80.12
2023-03-27T17:03:56.903Z,80.10
2023-03-27T17:06:24.171Z,80.40
2023-03-27T17:08:55.493Z,80.89
2023-03-27T17:11:28.886Z,80.88
2023-03-27T17:13:55.998Z,80.00
2023-03-27T17:16:23.182Z,80.02
2023-03-27T17:18:50.615Z,79.78
2023-03-27T17:21:18.001Z,80.49
2023-03-27T17:23:48.308Z,79.76
2023-03-27T17:26:25.373Z,79.91
2023-03-27T17:28:53.333Z,79.99
2023-03-27T17:31:20.982Z,79.59
2023-03-27T17:33:48.064Z,80.46
2023-03-27T17:36:19.898Z,80.22
2023-03-27T17:38:49.108Z,80.31
2023-03-27T17:41:17.653Z,80.22
2023-03-27T17:43:46.024Z,79.97
2023-03-27T17:46:14.265Z,79.76
2023-03-27T17:48:42.371Z,80.09
2023-03-27T17:51:10.431Z,80.28
2023-03-27T17:53:39.127Z,80.89
2023-03-27T17:56:06.600Z,80.39
2023-03-27T17:58:34.571Z,80.00
2023-03-27T18:01:12.848Z,80.61
2023-03-27T18:03:40.039Z,80.11
2023-03-27T18:06:07.326Z,81.01
2023-03-27T18:08:34.610Z,81.09
2023-03-27T18:11:01.643Z,80.37
2023-03-27T18:13:30.521Z,80.78
2023-03-27T18:15:58.437Z,80.35
2023-03-27T18:18:26.146Z,79.69
2023-03-27T18:20:54.868Z,80.36
2023-03-27T18:23:22.443Z,80.36
2023-03-27T18:25:49.449Z,80.55
2023-03-27T18:28:16.427Z,80.47
2023-03-27T18:30:44.328Z,80.36
2023-03-27T18:33:11.668Z,79.53
2023-03-27T18:35:39.332Z,79.52
2023-03-27T18:38:06.693Z,80.03
2023-03-27T18:40:33.751Z,79.85
2023-03-27T18:43:01.034Z,79.33
2023-03-27T18:45:28.163Z,79.02
2023-03-27T18:47:55.140Z,79.37
2023-03-27T18:50:22.137Z,78.99
2023-03-27T18:52:49.077Z,79.50
2023-03-27T18:55:16.510Z,79.69
2023-03-27T18:57:43.441Z,79.29
2023-03-27T19:00:18.273Z,79.73
2023-03-27T19:02:46.287Z,79.75
2023-03-27T19:05:15.021Z,79.90
2023-03-27T19:07:44.775Z,79.58
2023-03-27T19:10:13.836Z,80.27
2023-03-27T19:12:43.945Z,79.74
2023-03-27T19:15:34.833Z,79.94
2023-03-27T19:18:21.210Z,79.49
2023-03-27T19:21:06.982Z,79.50
2023-03-27T19:23:45.793Z,79.25
2023-03-27T19:26:16.752Z,79.24
2023-03-27T19:28:47.744Z,79.12
2023-03-27T19:31:15.750Z,79.46
2023-03-27T19:33:43.096Z,79.25
2023-03-27T19:36:10.531Z,79.99
2023-03-27T19:38:38.757Z,79.49
2023-03-27T19:41:10.091Z,78.85
2023-03-27T19:43:37.341Z,79.31
2023-03-27T19:46:15.684Z,79.23
2023-03-27T19:48:50.324Z,80.05
2023-03-27T19:51:37.643Z,80.18
2023-03-27T19:54:04.710Z,79.85
2023-03-27T19:56:32.370Z,80.63
2023-03-27T19:59:00.886Z,80.31
2023-03-27T20:01:28.572Z,80.29
2023-03-27T20:03:57.238Z,80.34
2023-03-27T20:06:26.233Z,80.28
2023-03-27T20:08:53.620Z,80.34
2023-03-27T20:11:21.281Z,80.29
2023-03-27T20:13:56.051Z,80.51
2023-03-27T20:16:26.570Z,81.02
2023-03-27T20:19:04.579Z,81.06
2023-03-27T20:21:38.107Z,81.87
2023-03-27T20:24:10.210Z,81.65
2023-03-27T20:26:42.215Z,81.41
2023-03-27T20:29:18.775Z,81.82
2023-03-27T20:31:46.683Z,81.68
2023-03-27T20:34:14.557Z,80.97
2023-03-27T20:36:43.496Z,82.05
2023-03-27T20:39:33.758Z,82.06
2023-03-27T20:42:00.903Z,82.79
2023-03-27T20:44:36.142Z,82.64
2023-03-27T20:47:11.055Z,83.64
2023-03-27T20:49:45.740Z,84.38
2023-03-27T20:52:16.264Z,85.84
2023-03-27T20:54:43.850Z,87.03
2023-03-27T20:57:12.392Z,86.62
2023-03-27T20:59:39.404Z,86.83
2023-03-27T21:02:06.952Z,86.97
2023-03-27T21:04:34.051Z,86.67
2023-03-27T21:07:01.065Z,86.77
2023-03-27T21:09:33.742Z,87.12
2023-03-27T21:12:01.440Z,88.41
2023-03-27T21:14:36.043Z,87.74
2023-03-27T21:17:03.038Z,87.59
2023-03-27T21:19:30.035Z,88.14
2023-03-27T21:21:56.989Z,88.09
2023-03-27T21:24:23.948Z,88.17
2023-03-27T21:26:51.064Z,88.57
2023-03-27T21:29:18.410Z,89.51
2023-03-27T21:31:45.540Z,89.32
2023-03-27T21:34:12.644Z,90.34
2023-03-27T21:36:39.594Z,90.53
2023-03-27T21:39:09.975Z,91.71
2023-03-27T21:41:36.907Z,91.64
2023-03-27T21:44:04.065Z,91.02
2023-03-27T21:46:31.189Z,91.27
2023-03-27T21:48:58.336Z,90.88
2023-03-27T21:51:25.718Z,90.69
2023-03-27T21:53:53.358Z,90.97
2023-03-27T21:56:20.449Z,91.63
2023-03-27T21:58:47.361Z,92.10
2023-03-27T22:01:15.264Z,92.06
2023-03-27T22:03:42.307Z,92.05
2023-03-27T22:06:12.984Z,92.44
2023-03-27T22:08:43.052Z,92.75
2023-03-27T22:11:12.412Z,92.99
2023-03-27T22:13:40.419Z,92.53
2023-03-27T22:16:10.430Z,92.89
2023-03-27T22:18:37.536Z,93.07
2023-03-27T22:21:20.146Z,93.37
2023-03-27T22:23:49.043Z,93.01
2023-03-27T22:26:16.393Z,93.49
2023-03-27T22:28:43.928Z,93.19
2023-03-27T22:31:11.019Z,93.74
2023-03-27T22:33:38.453Z,93.80
2023-03-27T22:36:08.728Z,93.85
2023-03-27T22:38:36.191Z,93.66
2023-03-27T22:41:04.890Z,93.31
2023-03-27T22:43:32.198Z,92.96
2023-03-27T22:46:06.941Z,93.67
2023-03-27T22:48:34.132Z,93.12
2023-03-27T22:51:01.450Z,92.98
2023-03-27T22:53:32.062Z,93.05
2023-03-27T22:55:59.947Z,92.60
2023-03-27T22:58:28.182Z,92.78
2023-03-27T23:00:56.451Z,92.93
2023-03-27T23:03:24.758Z,93.49
2023-03-27T23:05:52.644Z,94.03
2023-03-27T23:08:21.605Z,93.59
2023-03-27T23:10:55.564Z,93.97
2023-03-27T23:13:23.052Z,93.49
2023-03-27T23:15:51.888Z,93.36
2023-03-27T23:18:23.996Z,93.36
2023-03-27T23:21:02.807Z,92.90
2023-03-27T23:23:31.532Z,93.09
2023-03-27T23:25:59.242Z,93.13
2023-03-27T23:28:30.546Z,92.86
2023-03-27T23:31:02.431Z,92.86
2023-03-27T23:33:33.865Z,92.92
2023-03-27T23:36:04.915Z,92.79
2023-03-27T23:38:31.892Z,93.16
2023-03-27T23:41:01.768Z,93.40
2023-03-27T23:43:30.001Z,93.46
2023-03-27T23:45:59.558Z,93.58
2023-03-27T23:48:33.607Z,93.71
2023-03-27T23:51:00.947Z,94.10
2023-03-27T23:53:28.957Z,95.10
2023-03-27T23:55:57.843Z,94.63
2023-03-27T23:58:28.859Z,94.33
